Briefing drone pour Vichy (LFLV)

Rechercher une autre localisation

Conditions de vol :


Nous sommes le : Mardi 24 mai 2022
Il est 11:34 UTC (13:34 LT)

Lever de soleil : 03:38 UTC (05:38 LT)
Coucher de soleil : 19:48 UTC (21:48 LT)

Météo

L'essentiel des conditions de vol

VIGILANCE MÉTÉO FRANCE - Allier (03)
Pas de vigilances particulieres
CARTES DES FRONTS
METAR de LFLV
LFLV 241130Z AUTO 19005KT 110V240 9999 BKN052 BKN062 19/07 Q1011

Date d'émission: 24/05/2022
Heure d'émission: 11:30 UTC
Vent: 190° (variable du 110° au 240°) pour 5 KT (9 km/h)
Visibilité horizontale: > 10 km
Plafond :
- Nuages morcelés à 5200ft (1585m)
- Nuages morcelés à 6200ft (1890m)
Température: 19 °C
Point de rosée: 7 °C
Humidité: 46%
Pression (QNH): 1011 hPa
Prévision 24h pour Vichy
Vent : 236° pour 1 KT (3 km/h)
Temperature Maxi: 10 °C
Temperature Min: 10 °C
Humidité : 92%
Condition : Partiellement nuageux



Warning: count(): Parameter must be an array or an object that implements Countable in /homepages/6/d509196549/htdocs/droneoxygene/briefing.php on line 743
WEBCAM POUR VICHY

Réglementation

Voler en sécurité

CARTES AERONAUTIQUE 1/500.000
CARTES VAC (LFLV)
SUP AIP




Chargement des AIP...
NOTAM (VICHY + Terrain à proximité / FIR )




Chargement des NOTAMS...
CONTACT PREFECTURE 03


Avertissement : Les données mises à disposition sont indicatives. Oxygène Drone ne pourra être tenu responsable de dégâts causés aux biens et aux personnes.